createdAt,value
2023-04-18T03:59:02.591Z,19.33
2023-04-18T04:00:02.707Z,19.33
2023-04-18T04:01:02.786Z,19.33
2023-04-18T04:02:03.008Z,19.36
2023-04-18T04:03:03.218Z,19.38
2023-04-18T04:04:03.356Z,19.40
2023-04-18T04:05:03.472Z,19.42
2023-04-18T04:06:03.480Z,19.47
2023-04-18T04:07:03.651Z,19.50
2023-04-18T04:08:04.785Z,19.53
2023-04-18T04:09:03.870Z,19.55
2023-04-18T04:10:04.913Z,19.57
2023-04-18T04:11:04.128Z,19.61
2023-04-18T04:12:05.199Z,19.61
2023-04-18T04:13:04.337Z,19.65
2023-04-18T04:14:05.495Z,19.66
2023-04-18T04:15:04.567Z,19.68
2023-04-18T04:16:05.713Z,19.68
2023-04-18T04:17:04.913Z,19.70
2023-04-18T04:18:06.054Z,19.69
2023-04-18T04:19:05.134Z,19.70
2023-04-18T04:20:06.324Z,19.70
2023-04-18T04:21:05.405Z,19.72
2023-04-18T04:22:05.665Z,19.73
2023-04-18T04:23:05.722Z,19.73
2023-04-18T04:24:05.917Z,19.73
2023-04-18T04:25:05.920Z,19.75
2023-04-18T04:26:06.085Z,19.76
2023-04-18T04:27:06.154Z,19.76
2023-04-18T04:28:07.304Z,19.76
2023-04-18T04:29:06.464Z,19.76
2023-04-18T04:30:07.530Z,19.76
2023-04-18T04:31:06.787Z,19.76
2023-04-18T04:32:07.035Z,19.76
2023-04-18T04:33:07.011Z,19.78
2023-04-18T04:34:07.123Z,19.76
2023-04-18T04:35:07.214Z,19.79
2023-04-18T04:36:07.368Z,19.76
2023-04-18T04:37:07.530Z,19.80
2023-04-18T04:38:08.606Z,19.79
2023-04-18T04:39:07.806Z,19.79
2023-04-18T04:40:07.975Z,19.79
2023-04-18T04:41:08.094Z,19.79
2023-04-18T04:42:09.152Z,19.80
2023-04-18T04:43:08.293Z,19.80
2023-04-18T04:44:09.342Z,19.80
2023-04-18T04:45:08.525Z,19.80
2023-04-18T04:46:08.675Z,19.80
2023-04-18T04:47:08.744Z,19.83
2023-04-18T04:48:10.010Z,19.83
2023-04-18T04:49:09.016Z,19.80
2023-04-18T04:50:10.098Z,19.80
2023-04-18T04:51:09.264Z,19.83
2023-04-18T04:52:10.366Z,19.83
2023-04-18T04:53:09.557Z,19.83
2023-04-18T04:54:09.693Z,19.79
2023-04-18T04:55:09.922Z,19.83
2023-04-18T04:56:10.961Z,19.84
2023-04-18T04:57:11.147Z,19.84
2023-04-18T04:58:11.224Z,19.84
2023-04-18T04:59:10.412Z,19.83
2023-04-18T05:00:11.514Z,19.84
2023-04-18T05:01:10.718Z,19.83
2023-04-18T05:02:10.947Z,19.84
2023-04-18T05:03:11.068Z,19.86
2023-04-18T05:04:11.162Z,19.84
2023-04-18T05:05:11.198Z,19.84
2023-04-18T05:06:11.350Z,19.86
2023-04-18T05:07:11.529Z,19.86
2023-04-18T05:08:12.621Z,19.84
2023-04-18T05:09:11.748Z,19.84
2023-04-18T05:10:12.832Z,19.84
2023-04-18T05:11:11.971Z,19.86
2023-04-18T05:12:13.078Z,19.84
2023-04-18T05:13:12.264Z,19.86
2023-04-18T05:14:12.731Z,19.86
2023-04-18T05:15:12.557Z,19.86
2023-04-18T05:16:12.703Z,19.86
2023-04-18T05:17:12.785Z,19.86
2023-04-18T05:18:12.888Z,19.87
2023-04-18T05:19:13.182Z,19.86
2023-04-18T05:20:13.198Z,19.86
2023-04-18T05:21:13.272Z,19.86
2023-04-18T05:22:14.339Z,19.87
2023-04-18T05:23:13.562Z,19.88
2023-04-18T05:24:13.959Z,19.87
2023-04-18T05:25:13.787Z,19.88
2023-04-18T05:26:14.887Z,19.87
2023-04-18T05:27:15.045Z,19.88
2023-04-18T05:28:14.226Z,19.90
2023-04-18T05:29:14.316Z,19.90
2023-04-18T05:30:14.503Z,19.90
2023-04-18T05:31:14.660Z,19.91
2023-04-18T05:32:14.771Z,19.91
2023-04-18T05:33:14.913Z,19.90
2023-04-18T05:34:15.473Z,19.90
2023-04-18T05:35:15.198Z,19.90
2023-04-18T05:38:46.534Z,19.90
2023-04-18T05:39:46.580Z,19.91
2023-04-18T05:40:46.683Z,19.88
2023-04-18T05:41:47.441Z,19.88
2023-04-18T05:42:47.028Z,19.90
2023-04-18T05:44:01.860Z,19.90
2023-04-18T05:44:48.284Z,19.90
2023-04-18T05:45:47.450Z,19.90
2023-04-18T05:46:47.637Z,19.90
2023-04-18T05:47:48.840Z,19.90
2023-04-18T05:48:47.872Z,19.90
2023-04-18T05:49:47.976Z,19.88
2023-04-18T05:50:48.087Z,19.90
2023-04-18T05:51:48.301Z,19.88
2023-04-18T05:52:48.520Z,19.90
2023-04-18T05:53:48.560Z,19.90
2023-04-18T05:54:48.716Z,19.90
2023-04-18T05:55:48.970Z,19.88
2023-04-18T05:56:49.057Z,19.90
2023-04-18T05:57:50.095Z,19.90
2023-04-18T05:58:50.182Z,19.88
2023-04-18T05:59:49.401Z,19.90
2023-04-18T06:00:49.588Z,19.90
2023-04-18T06:01:49.611Z,19.88
2023-04-18T06:02:49.878Z,19.90
2023-04-18T06:03:50.450Z,19.90
2023-04-18T06:04:50.793Z,19.90
2023-04-18T06:05:50.387Z,19.90
2023-04-18T06:06:51.010Z,19.91
2023-04-18T06:07:50.508Z,19.91
2023-04-18T06:08:50.548Z,19.93
2023-04-18T06:09:50.658Z,19.91
2023-04-18T06:10:50.863Z,19.91
2023-04-18T06:11:52.048Z,19.91
2023-04-18T06:12:51.222Z,19.91
2023-04-18T06:13:51.251Z,19.93
2023-04-18T06:14:51.409Z,19.91
2023-04-18T06:15:51.590Z,19.91
2023-04-18T06:16:51.802Z,19.93
2023-04-18T06:17:51.954Z,19.91
2023-04-18T06:18:52.068Z,19.93
2023-04-18T06:19:52.265Z,19.93
2023-04-18T06:20:52.307Z,19.95
2023-04-18T06:21:52.556Z,19.94
2023-04-18T06:22:52.701Z,19.95
2023-04-18T06:23:52.673Z,19.97
2023-04-18T06:24:53.804Z,19.95
2023-04-18T06:25:53.013Z,19.95
2023-04-18T06:26:53.631Z,19.97
2023-04-18T06:27:53.222Z,19.97
2023-04-18T06:28:53.316Z,19.97
2023-04-18T06:29:53.495Z,19.97
2023-04-18T06:30:53.655Z,19.97
2023-04-18T06:31:53.830Z,19.97
2023-04-18T06:32:53.852Z,19.98
2023-04-18T06:33:53.933Z,19.98
2023-04-18T06:34:54.173Z,19.98
2023-04-18T06:35:54.309Z,19.95
2023-04-18T06:36:54.410Z,19.98
2023-04-18T06:37:54.530Z,19.98
2023-04-18T06:38:55.584Z,19.97
2023-04-18T06:39:55.441Z,19.97
2023-04-18T06:40:55.001Z,19.98
2023-04-18T06:41:55.064Z,19.97
2023-04-18T06:42:55.211Z,19.97
2023-04-18T06:44:02.722Z,19.98
2023-04-18T06:44:56.535Z,19.98
2023-04-18T06:45:55.740Z,20.00
2023-04-18T06:46:55.798Z,19.98
2023-04-18T06:47:56.890Z,20.00
2023-04-18T06:48:55.984Z,20.00
2023-04-18T06:49:56.150Z,19.98
2023-04-18T06:50:56.217Z,20.02
2023-04-18T06:51:56.495Z,20.02
2023-04-18T06:52:57.481Z,20.05
2023-04-18T06:53:56.656Z,20.03
2023-04-18T06:54:56.777Z,20.03
2023-04-18T06:55:56.933Z,20.03
2023-04-18T06:56:57.047Z,20.03
2023-04-18T06:57:57.113Z,20.05
2023-04-18T06:58:57.333Z,20.05
2023-04-18T06:59:57.422Z,20.06
2023-04-18T07:00:57.626Z,20.06
2023-04-18T07:01:57.734Z,20.06
2023-04-18T07:02:58.085Z,20.06
2023-04-18T07:03:58.007Z,20.05
2023-04-18T07:04:58.156Z,20.05
2023-04-18T07:05:58.257Z,20.06
2023-04-18T07:06:58.446Z,20.08
2023-04-18T07:07:58.555Z,20.06
2023-04-18T07:08:59.577Z,20.08
2023-04-18T07:09:58.804Z,20.08
2023-04-18T07:10:59.595Z,20.08
2023-04-18T07:11:59.169Z,20.06
2023-04-18T07:13:00.165Z,20.09
2023-04-18T07:13:59.362Z,20.08
2023-04-18T07:14:59.593Z,20.09
2023-04-18T07:15:59.665Z,20.10
2023-04-18T07:16:59.881Z,20.10
2023-04-18T07:17:59.941Z,20.10
2023-04-18T07:19:00.029Z,20.10
2023-04-18T07:20:00.138Z,20.10
2023-04-18T07:21:00.284Z,20.10
2023-04-18T07:22:01.301Z,20.12
2023-04-18T07:23:00.604Z,20.12
2023-04-18T07:24:00.751Z,20.13
2023-04-18T07:25:00.778Z,20.13
2023-04-18T07:26:01.047Z,20.13
2023-04-18T07:29:17.776Z,20.15
2023-04-18T07:30:18.627Z,20.18
2023-04-18T07:31:18.267Z,20.16
2023-04-18T07:32:18.193Z,20.18
2023-04-18T07:33:18.271Z,20.20
2023-04-18T07:34:18.663Z,20.20
2023-04-18T07:35:18.590Z,20.20
2023-04-18T07:36:18.694Z,20.21
2023-04-18T07:37:19.070Z,20.21
2023-04-18T07:38:19.233Z,20.21
2023-04-18T07:39:19.402Z,20.23
2023-04-18T07:40:19.958Z,20.21
2023-04-18T07:41:20.149Z,20.23
2023-04-18T07:42:19.424Z,20.21
2023-04-18T07:43:20.858Z,20.21
2023-04-18T07:44:20.365Z,20.23
2023-04-18T07:45:20.995Z,20.23
2023-04-18T07:46:19.976Z,20.23
2023-04-18T07:47:22.356Z,20.24
2023-04-18T07:48:20.171Z,20.24
2023-04-18T07:49:20.297Z,20.27
2023-04-18T07:50:20.521Z,20.24
2023-04-18T07:51:20.566Z,20.24
2023-04-18T07:52:20.850Z,20.25
2023-04-18T07:53:21.017Z,20.25
2023-04-18T07:54:21.071Z,20.28
2023-04-18T07:55:21.186Z,20.27
2023-04-18T07:56:21.551Z,20.28
2023-04-18T07:57:21.607Z,20.28
2023-04-18T07:58:21.625Z,20.28
2023-04-18T07:59:21.816Z,20.27
2023-04-18T08:00:23.826Z,20.30
2023-04-18T08:01:21.966Z,20.30
2023-04-18T08:02:23.153Z,20.30
2023-04-18T08:03:23.133Z,20.30
2023-04-18T08:04:22.700Z,20.30
2023-04-18T08:05:23.477Z,20.31
2023-04-18T08:06:22.773Z,20.33
2023-04-18T08:07:22.775Z,20.33
2023-04-18T08:08:22.977Z,20.34
2023-04-18T08:09:23.029Z,20.34
2023-04-18T08:10:23.903Z,20.33
2023-04-18T08:11:23.276Z,20.33
2023-04-18T08:12:24.350Z,20.34
2023-04-18T08:13:23.641Z,20.35
2023-04-18T08:14:23.819Z,20.34
2023-04-18T08:15:23.940Z,20.35
2023-04-18T08:16:24.108Z,20.38
2023-04-18T08:17:24.260Z,20.35
2023-04-18T08:18:24.271Z,20.38
2023-04-18T08:19:24.471Z,20.38
2023-04-18T08:20:24.582Z,20.38
2023-04-18T08:21:25.683Z,20.38
2023-04-18T08:22:24.904Z,20.39
2023-04-18T08:23:25.088Z,20.39
2023-04-18T08:24:25.141Z,20.38
2023-04-18T08:25:25.439Z,20.35
2023-04-18T08:26:25.560Z,20.38
2023-04-18T08:27:26.548Z,20.38
2023-04-18T08:28:26.909Z,20.35
2023-04-18T08:29:25.956Z,20.35
2023-04-18T08:30:26.115Z,20.35
2023-04-18T08:31:26.325Z,20.35
2023-04-18T08:32:26.365Z,20.39
2023-04-18T08:33:26.487Z,20.38
2023-04-18T08:34:26.640Z,20.39
2023-04-18T08:35:26.622Z,20.39
2023-04-18T08:36:26.891Z,20.41
2023-04-18T08:37:27.808Z,20.38
2023-04-18T08:38:27.152Z,20.41
2023-04-18T08:39:27.302Z,20.41
2023-04-18T08:40:28.609Z,20.42
2023-04-18T08:41:28.810Z,20.42
2023-04-18T08:42:29.796Z,20.42
2023-04-18T08:43:27.944Z,20.43
2023-04-18T08:44:27.888Z,20.43
2023-04-18T08:45:28.078Z,20.46
2023-04-18T08:46:28.291Z,20.43
2023-04-18T08:47:28.785Z,20.46
2023-04-18T08:48:28.523Z,20.46
2023-04-18T08:49:28.605Z,20.47
2023-04-18T08:50:28.728Z,20.47
2023-04-18T08:51:28.847Z,20.47
2023-04-18T08:52:29.152Z,20.49
2023-04-18T08:53:29.159Z,20.47
2023-04-18T08:54:29.283Z,20.49
2023-04-18T08:55:29.456Z,20.49
2023-04-18T08:56:29.474Z,20.49
2023-04-18T08:57:29.600Z,20.47
2023-04-18T08:58:29.830Z,20.49
2023-04-18T08:59:29.937Z,20.49
2023-04-18T09:00:30.110Z,20.51
2023-04-18T09:01:30.316Z,20.50
2023-04-18T09:02:30.455Z,20.50
2023-04-18T09:03:31.276Z,20.50
2023-04-18T09:04:30.768Z,20.50
2023-04-18T09:05:31.020Z,20.49
2023-04-18T09:06:30.870Z,20.49
2023-04-18T09:07:30.894Z,20.49
2023-04-18T09:08:31.113Z,20.47
2023-04-18T09:09:31.892Z,20.50
2023-04-18T09:10:31.378Z,20.50
2023-04-18T09:11:31.433Z,20.51
2023-04-18T09:12:31.626Z,20.49
2023-04-18T09:13:31.767Z,20.51
2023-04-18T09:14:31.931Z,20.51
2023-04-18T09:15:32.046Z,20.51
2023-04-18T09:16:32.342Z,20.51
2023-04-18T09:17:32.384Z,20.53
2023-04-18T09:18:32.518Z,20.53
2023-04-18T09:19:32.629Z,20.53
2023-04-18T09:20:32.821Z,20.54
2023-04-18T09:21:33.813Z,20.53
2023-04-18T09:22:33.964Z,20.54
2023-04-18T09:23:33.871Z,20.54
2023-04-18T09:25:48.902Z,20.58
2023-04-18T09:26:49.084Z,20.56
2023-04-18T09:27:49.267Z,20.58
2023-04-18T09:28:49.326Z,20.56
2023-04-18T09:29:49.594Z,20.56
2023-04-18T09:30:49.746Z,20.58
2023-04-18T09:31:49.840Z,20.54
2023-04-18T09:32:49.865Z,20.54
2023-04-18T09:33:51.009Z,20.58
2023-04-18T09:34:50.303Z,20.56
2023-04-18T09:35:50.203Z,20.58
2023-04-18T09:36:50.516Z,20.58
2023-04-18T09:37:50.527Z,20.56
2023-04-18T09:38:50.610Z,20.58
2023-04-18T09:39:51.642Z,20.58
2023-04-18T09:40:51.157Z,20.58
2023-04-18T09:41:51.027Z,20.58
2023-04-18T09:42:52.090Z,20.58
2023-04-18T09:43:51.187Z,20.56
2023-04-18T09:44:51.469Z,20.56
2023-04-18T09:45:51.479Z,20.54
2023-04-18T09:46:51.770Z,20.56
2023-04-18T09:47:51.888Z,20.54
2023-04-18T09:48:53.029Z,20.56
2023-04-18T09:49:52.112Z,20.54
2023-04-18T09:50:52.266Z,20.56
2023-04-18T09:51:53.183Z,20.56
2023-04-18T09:52:53.386Z,20.54
2023-04-18T09:53:53.686Z,20.58
2023-04-18T09:54:52.590Z,20.58
2023-04-18T09:55:56.172Z,20.58
2023-04-18T09:56:52.876Z,20.58
2023-04-18T09:57:53.012Z,20.58
2023-04-18T09:58:54.029Z,20.58
2023-04-18T09:59:53.274Z,20.61
2023-04-18T10:00:53.439Z,20.58
2023-04-18T10:01:53.664Z,20.59
2023-04-18T10:13:23.894Z,20.41
2023-04-18T10:14:24.177Z,20.41
2023-04-18T10:15:24.147Z,20.39
2023-04-18T10:16:25.087Z,20.41
2023-04-18T10:17:24.329Z,20.41
2023-04-18T10:18:24.712Z,20.42
2023-04-18T10:19:24.665Z,20.46
2023-04-18T10:20:24.581Z,20.46
2023-04-18T10:21:24.775Z,20.50
2023-04-18T10:22:24.974Z,20.50
2023-04-18T10:23:26.991Z,20.53
2023-04-18T10:24:25.109Z,20.54
2023-04-18T10:25:25.308Z,20.58
2023-04-18T10:26:26.274Z,20.59
2023-04-18T10:27:25.577Z,20.61
2023-04-18T10:28:25.668Z,20.62
2023-04-18T10:29:25.827Z,20.64
2023-04-18T10:30:26.082Z,20.64
2023-04-18T10:31:27.336Z,20.65
2023-04-18T10:32:26.265Z,20.65
2023-04-18T10:33:30.979Z,20.68
2023-04-18T10:34:28.346Z,20.68
2023-04-18T10:35:26.740Z,20.69
2023-04-18T10:36:26.873Z,20.71
2023-04-18T10:37:26.932Z,20.71
2023-04-18T10:38:27.434Z,20.71
2023-04-18T10:39:27.336Z,20.72
2023-04-18T10:40:27.324Z,20.74
2023-04-18T10:41:28.414Z,20.74
2023-04-18T10:42:27.579Z,20.76
2023-04-18T10:43:27.683Z,20.76
2023-04-18T10:44:27.818Z,20.77
2023-04-18T10:45:28.025Z,20.77
2023-04-18T10:46:32.468Z,20.77
2023-04-18T10:47:28.372Z,20.77
2023-04-18T10:48:29.399Z,20.77
2023-04-18T10:49:31.142Z,20.79
2023-04-18T10:50:29.358Z,20.79
2023-04-18T10:51:29.722Z,20.79
2023-04-18T10:52:30.734Z,20.79
2023-04-18T10:53:29.114Z,20.80
2023-04-18T10:54:30.944Z,20.79
2023-04-18T10:55:30.185Z,20.80
2023-04-18T10:56:29.404Z,20.80
2023-04-18T10:57:29.508Z,20.80
2023-04-18T10:58:30.685Z,20.80
2023-04-18T10:59:29.775Z,20.81
2023-04-18T11:00:29.871Z,20.80
2023-04-18T11:01:32.761Z,20.81
2023-04-18T11:02:30.591Z,20.80
2023-04-18T11:03:30.558Z,20.80
2023-04-18T11:04:30.599Z,20.81
2023-04-18T11:05:30.676Z,20.80
2023-04-18T11:06:30.821Z,20.81
2023-04-18T11:07:31.026Z,20.81
2023-04-18T11:08:32.009Z,20.83
2023-04-18T11:09:31.719Z,20.83
2023-04-18T11:10:31.413Z,20.81
2023-04-18T11:11:31.475Z,20.80
2023-04-18T11:12:31.556Z,20.80
2023-04-18T11:13:32.083Z,20.80
2023-04-18T11:14:32.130Z,20.80
2023-04-18T11:15:32.220Z,20.81
2023-04-18T11:16:33.011Z,20.81
2023-04-18T11:17:32.360Z,20.80
2023-04-18T11:18:32.754Z,20.81
2023-04-18T11:19:33.626Z,20.81
2023-04-18T11:20:32.567Z,20.83
2023-04-18T11:21:33.038Z,20.83
2023-04-18T11:22:33.051Z,20.84
2023-04-18T11:23:33.889Z,20.87
2023-04-18T11:24:33.140Z,20.90
2023-04-18T11:25:33.296Z,20.89
2023-04-18T11:26:33.887Z,20.91
2023-04-18T11:27:33.631Z,20.93
2023-04-18T11:28:34.559Z,20.93
2023-04-18T11:29:34.751Z,20.93
2023-04-18T11:30:34.048Z,20.93
2023-04-18T11:31:35.857Z,20.93
2023-04-18T11:32:34.441Z,20.93
2023-04-18T11:33:34.426Z,20.93
2023-04-18T11:34:34.589Z,20.93
2023-04-18T11:35:34.820Z,20.95
2023-04-18T11:36:34.762Z,20.93
2023-04-18T11:37:35.017Z,20.95
2023-04-18T11:38:35.937Z,20.93
2023-04-18T11:39:35.170Z,20.93
2023-04-18T11:40:36.255Z,20.93
2023-04-18T11:41:36.427Z,20.93
2023-04-18T11:42:35.590Z,20.93
2023-04-18T11:43:35.670Z,20.93
2023-04-18T11:44:36.382Z,20.95
2023-04-18T11:45:35.876Z,20.93
2023-04-18T11:46:36.189Z,20.93
2023-04-18T11:47:36.249Z,20.91
2023-04-18T11:48:36.275Z,20.95
2023-04-18T11:49:36.362Z,20.96
2023-04-18T11:52:53.208Z,20.96
2023-04-18T11:53:53.504Z,20.98
2023-04-18T11:54:53.543Z,20.98
2023-04-18T11:55:53.633Z,20.98
2023-04-18T11:56:53.671Z,20.99
2023-04-18T11:57:53.860Z,20.96
2023-04-18T11:58:53.975Z,20.98
2023-04-18T11:59:55.154Z,20.99
2023-04-18T12:00:55.241Z,21.01
2023-04-18T12:01:58.415Z,20.99
2023-04-18T12:02:54.681Z,21.01
2023-04-18T12:03:55.595Z,21.04
2023-04-18T12:04:55.244Z,21.04
2023-04-18T12:05:55.063Z,21.04
2023-04-18T12:06:56.088Z,21.04
2023-04-18T12:07:56.230Z,21.02
2023-04-18T12:08:56.435Z,21.01
2023-04-18T12:09:56.326Z,21.02
2023-04-18T12:10:55.607Z,21.04
2023-04-18T12:11:55.725Z,21.02
2023-04-18T12:12:56.638Z,21.04
2023-04-18T12:13:56.093Z,21.08
2023-04-18T12:14:56.314Z,21.09
2023-04-18T12:15:56.409Z,21.09
2023-04-18T12:16:56.493Z,21.11
2023-04-18T12:17:56.669Z,21.13
2023-04-18T12:18:57.079Z,21.11
2023-04-18T12:19:56.968Z,21.16
2023-04-18T12:20:56.987Z,21.16
2023-04-18T12:21:57.175Z,21.16
2023-04-18T12:22:57.233Z,21.19
2023-04-18T12:23:58.260Z,21.21
2023-04-18T12:24:57.483Z,21.24
2023-04-18T12:25:57.667Z,21.27
2023-04-18T12:26:58.550Z,21.29
2023-04-18T12:27:58.707Z,21.30
2023-04-18T12:28:58.017Z,21.35
2023-04-18T12:29:58.092Z,21.36
2023-04-18T12:30:58.227Z,21.36
2023-04-18T12:31:58.540Z,21.41
2023-04-18T12:32:58.770Z,21.42
2023-04-18T12:33:58.629Z,21.46
2023-04-18T12:34:58.798Z,21.50
2023-04-18T12:35:59.870Z,21.54
2023-04-18T12:37:00.057Z,21.59
2023-04-18T12:38:00.952Z,21.63
2023-04-18T12:39:00.341Z,21.64
2023-04-18T12:40:00.500Z,21.64
2023-04-18T12:41:00.835Z,21.72
2023-04-18T12:41:59.885Z,21.76
2023-04-18T12:43:02.187Z,21.88
2023-04-18T12:44:01.058Z,21.91
2023-04-18T12:45:00.307Z,21.95
2023-04-18T12:46:00.465Z,22.01
2023-04-18T12:47:00.512Z,22.06
2023-04-18T12:48:00.677Z,22.10
2023-04-18T12:49:00.842Z,22.10
2023-04-18T12:50:00.879Z,22.20
2023-04-18T12:51:01.133Z,22.31
2023-04-18T12:52:01.154Z,22.43
2023-04-18T12:53:01.339Z,22.54
2023-04-18T12:54:01.596Z,22.54
2023-04-18T12:55:01.597Z,22.47
2023-04-18T12:56:01.699Z,22.43
2023-04-18T12:57:01.811Z,22.37
2023-04-18T12:58:02.981Z,22.35
2023-04-18T12:59:05.003Z,22.32
2023-04-18T13:00:02.210Z,22.28
2023-04-18T13:01:02.367Z,22.27
2023-04-18T13:02:02.776Z,22.20
2023-04-18T13:03:02.714Z,22.16
2023-04-18T13:04:11.767Z,22.12
2023-04-18T13:05:03.958Z,22.07
2023-04-18T13:06:03.780Z,22.16
2023-04-18T13:07:03.029Z,22.25
2023-04-18T13:08:16.236Z,22.28
2023-04-18T13:09:05.232Z,22.56
2023-04-18T13:10:03.485Z,22.96
2023-04-18T13:11:04.586Z,22.96
2023-04-18T13:12:04.723Z,23.09
2023-04-18T13:13:04.842Z,23.58
2023-04-18T13:14:04.052Z,23.79
2023-04-18T13:15:05.260Z,24.01
2023-04-18T13:16:04.513Z,23.76
2023-04-18T13:17:04.554Z,23.82
2023-04-18T13:18:05.080Z,24.27
2023-04-18T13:19:05.789Z,24.19
2023-04-18T13:20:04.923Z,24.60
2023-04-18T13:21:05.052Z,24.54
2023-04-18T13:22:05.180Z,24.14
2023-04-18T13:23:05.352Z,23.83
2023-04-18T13:24:06.402Z,23.70
2023-04-18T13:25:06.585Z,23.50
2023-04-18T13:26:06.914Z,23.27
2023-04-18T13:28:25.509Z,22.96
2023-04-18T13:29:21.723Z,22.82
2023-04-18T13:30:21.770Z,22.72
2023-04-18T13:31:21.872Z,22.62
2023-04-18T13:32:22.115Z,22.54
2023-04-18T13:33:22.279Z,22.44
2023-04-18T13:34:22.321Z,22.35
2023-04-18T13:35:22.501Z,22.31
2023-04-18T13:36:23.599Z,22.23
2023-04-18T13:37:24.551Z,22.19
2023-04-18T13:38:23.888Z,22.14
2023-04-18T13:39:23.086Z,22.09
2023-04-18T13:40:23.212Z,22.06
2023-04-18T13:41:24.376Z,22.02
2023-04-18T13:42:24.548Z,21.99
2023-04-18T13:43:23.781Z,21.95
2023-04-18T13:44:24.077Z,21.94
2023-04-18T13:45:24.980Z,21.90
2023-04-18T13:46:24.370Z,21.85
2023-04-18T13:47:24.218Z,21.83
2023-04-18T13:48:24.472Z,21.82
2023-04-18T13:49:24.454Z,21.79
2023-04-18T13:50:24.671Z,21.81
2023-04-18T13:51:24.724Z,21.82
2023-04-18T13:52:25.722Z,21.78
2023-04-18T13:53:25.043Z,21.76
2023-04-18T13:54:25.150Z,21.74
2023-04-18T13:55:25.252Z,21.71
2023-04-18T13:56:26.110Z,21.67
2023-04-18T13:57:25.602Z,21.67
2023-04-18T13:58:25.719Z,21.64
2023-04-18T13:59:25.913Z,21.64
2023-04-18T14:00:25.970Z,21.63
2023-04-18T14:01:26.178Z,21.60
2023-04-18T14:02:26.466Z,21.60
2023-04-18T14:03:26.509Z,21.57
2023-04-18T14:04:26.608Z,21.57
2023-04-18T14:05:27.321Z,21.56
2023-04-18T14:06:26.780Z,21.56
2023-04-18T14:07:26.921Z,21.54
2023-04-18T14:08:27.037Z,21.56
2023-04-18T14:09:27.174Z,21.59
2023-04-18T14:10:27.289Z,21.59
2023-04-18T14:11:27.429Z,21.71
2023-04-18T14:12:27.575Z,22.23
2023-04-18T14:13:27.697Z,22.22
2023-04-18T14:14:27.865Z,22.09
2023-04-18T14:15:28.031Z,21.99
2023-04-18T14:16:28.139Z,21.91
2023-04-18T14:17:28.294Z,21.83
2023-04-18T14:18:28.363Z,21.76
2023-04-18T14:19:28.484Z,21.72
2023-04-18T14:20:28.652Z,21.69
2023-04-18T14:21:28.773Z,21.64
2023-04-18T14:22:28.918Z,21.59
2023-04-18T14:23:29.085Z,21.56
2023-04-18T14:24:29.231Z,21.59
2023-04-18T14:25:29.340Z,21.63
2023-04-18T14:26:29.506Z,21.69
2023-04-18T14:27:29.654Z,21.66
2023-04-18T14:28:29.783Z,21.75
2023-04-18T14:29:29.995Z,21.79
2023-04-18T14:30:30.055Z,21.79
2023-04-18T14:31:30.235Z,21.82
2023-04-18T14:32:30.397Z,21.79
2023-04-18T14:33:30.473Z,21.78
2023-04-18T14:34:33.293Z,21.78
2023-04-18T14:35:30.788Z,21.74
2023-04-18T14:36:30.899Z,21.74
2023-04-18T14:37:31.072Z,21.71
2023-04-18T14:38:31.191Z,21.67
2023-04-18T14:39:31.365Z,21.64
2023-04-18T14:40:32.841Z,21.59
2023-04-18T14:41:31.649Z,21.57
2023-04-18T14:42:31.729Z,21.56
2023-04-18T14:43:32.793Z,21.56
2023-04-18T14:44:31.990Z,21.56
2023-04-18T14:45:32.120Z,21.56
2023-04-18T14:46:32.331Z,21.53
2023-04-18T14:47:32.426Z,21.53
2023-04-18T14:48:32.586Z,21.51
2023-04-18T14:49:32.654Z,21.50
2023-04-18T14:50:32.763Z,21.48
2023-04-18T14:51:32.900Z,21.50
2023-04-18T14:52:33.076Z,21.48
2023-04-18T14:53:34.124Z,21.46
2023-04-18T14:54:33.257Z,21.48
2023-04-18T14:55:33.396Z,21.50
2023-04-18T14:56:33.493Z,21.50
2023-04-18T14:57:33.653Z,21.53
2023-04-18T14:58:33.712Z,21.51
2023-04-18T14:59:33.849Z,21.53
2023-04-18T15:00:33.976Z,21.53
2023-04-18T15:01:34.132Z,21.53
2023-04-18T15:02:34.414Z,21.51
2023-04-18T15:03:34.506Z,21.50
2023-04-18T15:04:34.666Z,21.48
2023-04-18T15:05:34.639Z,21.46
2023-04-18T15:06:34.753Z,21.45
2023-04-18T15:07:34.893Z,21.45
2023-04-18T15:08:35.049Z,21.44
2023-04-18T15:09:35.222Z,21.42
2023-04-18T15:10:35.369Z,21.41
2023-04-18T15:11:35.474Z,21.42
2023-04-18T15:12:35.588Z,21.39
2023-04-18T15:13:35.746Z,21.39
2023-04-18T15:14:35.863Z,21.38
2023-04-18T15:15:35.990Z,21.36
2023-04-18T15:16:36.197Z,21.35
2023-04-18T15:17:36.274Z,21.35
2023-04-18T15:18:37.332Z,21.36
2023-04-18T15:19:36.471Z,21.34
2023-04-18T15:20:37.560Z,21.32
2023-04-18T15:21:36.790Z,21.32
2023-04-18T15:22:36.926Z,21.32
2023-04-18T15:23:37.045Z,21.34
2023-04-18T15:24:37.185Z,21.35
2023-04-18T15:25:37.331Z,21.34
2023-04-18T15:26:37.482Z,21.32
2023-04-18T15:27:37.596Z,21.30
2023-04-18T15:28:37.718Z,21.32
2023-04-18T15:29:37.860Z,21.32
2023-04-18T15:30:37.995Z,21.30
2023-04-18T15:31:39.171Z,21.30
2023-04-18T15:32:38.337Z,21.29
2023-04-18T15:33:38.408Z,21.29
2023-04-18T15:34:38.547Z,21.27
2023-04-18T15:35:38.635Z,21.27
2023-04-18T15:36:38.827Z,21.27
2023-04-18T15:37:38.958Z,21.27
2023-04-18T15:38:39.097Z,21.24
2023-04-18T15:39:39.245Z,21.24
2023-04-18T15:40:39.392Z,21.23
2023-04-18T15:41:39.550Z,21.23
2023-04-18T15:42:39.692Z,21.21
2023-04-18T15:43:39.852Z,21.24
2023-04-18T15:44:39.970Z,21.21
2023-04-18T15:45:40.134Z,21.21
2023-04-18T15:46:40.329Z,21.20
2023-04-18T15:47:40.557Z,21.20
2023-04-18T15:48:40.510Z,21.19
2023-04-18T15:49:40.675Z,21.19
2023-04-18T15:50:40.810Z,21.17
2023-04-18T15:51:40.947Z,21.17
2023-04-18T15:52:41.080Z,21.17
2023-04-18T15:53:41.264Z,21.17
2023-04-18T15:54:41.358Z,21.16
2023-04-18T15:55:41.499Z,21.17
2023-04-18T15:56:41.679Z,21.16
2023-04-18T15:57:41.979Z,21.14
2023-04-18T15:58:41.935Z,21.14
2023-04-18T15:59:42.090Z,21.14
2023-04-18T16:00:42.199Z,21.14
2023-04-18T16:12:31.044Z,20.87
2023-04-18T16:13:31.122Z,20.83
2023-04-18T16:14:31.282Z,20.83
2023-04-18T16:15:31.441Z,20.84
2023-04-18T16:16:32.612Z,20.86
2023-04-18T16:17:31.773Z,20.84
2023-04-18T16:18:31.800Z,20.87
2023-04-18T16:19:32.571Z,20.89
2023-04-18T16:20:32.042Z,20.90
2023-04-18T16:21:32.203Z,20.91
2023-04-18T16:22:32.354Z,20.93
2023-04-18T16:23:32.488Z,20.95
2023-04-18T16:24:32.647Z,20.96
2023-04-18T16:25:33.673Z,20.96
2023-04-18T16:26:32.810Z,20.95
2023-04-18T16:27:32.942Z,20.96
2023-04-18T16:28:33.062Z,20.98
2023-04-18T16:29:33.184Z,20.98
2023-04-18T16:30:34.229Z,20.98
2023-04-18T16:31:33.457Z,20.98
2023-04-18T16:32:33.611Z,20.98
2023-04-18T16:33:33.762Z,21.02
2023-04-18T16:34:34.805Z,21.01
2023-04-18T16:35:33.980Z,21.01
2023-04-18T16:36:34.176Z,21.01
2023-04-18T16:37:34.263Z,21.01
2023-04-18T16:38:34.331Z,21.02
2023-04-18T16:39:34.478Z,21.01
2023-04-18T16:40:34.630Z,20.99
2023-04-18T16:41:34.770Z,20.99
2023-04-18T16:42:34.913Z,21.01
2023-04-18T16:43:35.027Z,21.01
2023-04-18T16:44:35.170Z,21.02
2023-04-18T16:45:35.308Z,21.01
2023-04-18T16:46:35.477Z,21.01
2023-04-18T16:47:35.665Z,21.02
2023-04-18T16:48:35.737Z,21.01
2023-04-18T16:49:35.860Z,21.01
2023-04-18T16:50:36.044Z,21.01
2023-04-18T16:51:36.198Z,21.01
2023-04-18T16:52:36.336Z,21.01
2023-04-18T16:53:36.479Z,21.01
2023-04-18T16:54:36.626Z,20.99
2023-04-18T16:55:36.742Z,21.01
2023-04-18T16:56:36.871Z,21.01
2023-04-18T16:57:37.024Z,20.99
2023-04-18T16:58:37.171Z,20.99
2023-04-18T16:59:37.283Z,20.99
2023-04-18T17:00:38.476Z,20.99
2023-04-18T17:01:37.588Z,20.98
2023-04-18T17:02:37.805Z,21.01
2023-04-18T17:03:38.003Z,21.01
2023-04-18T17:04:38.033Z,20.99
2023-04-18T17:05:38.090Z,20.99
2023-04-18T17:06:38.234Z,20.99
2023-04-18T17:07:38.374Z,20.99
2023-04-18T17:08:38.506Z,20.98
2023-04-18T17:09:38.628Z,20.98
2023-04-18T17:10:38.729Z,20.98
2023-04-18T17:11:39.668Z,20.96
2023-04-18T17:12:39.040Z,20.96
2023-04-18T17:13:39.158Z,20.96
2023-04-18T17:14:39.289Z,20.98
2023-04-18T17:15:39.453Z,20.96
2023-04-18T17:16:39.717Z,20.96
2023-04-18T17:17:39.771Z,20.96
2023-04-18T17:18:39.801Z,20.93
2023-04-18T17:19:39.950Z,20.96
2023-04-18T17:20:40.075Z,20.95
2023-04-18T17:21:40.252Z,20.93
2023-04-18T17:22:40.350Z,20.95
2023-04-18T17:23:40.460Z,20.91